createdAt,value
2022-12-23T00:00:31.474Z,8
2022-12-23T00:01:33.581Z,7.9
2022-12-23T00:02:35.749Z,7.9
2022-12-23T00:03:37.663Z,7.9
2022-12-23T00:04:39.582Z,8
2022-12-23T00:05:41.835Z,7.9
2022-12-23T00:06:43.597Z,7.9
2022-12-23T00:07:45.484Z,7.8
2022-12-23T00:08:47.466Z,7.8
2022-12-23T00:09:49.522Z,7.9
2022-12-23T00:10:51.538Z,7.9
2022-12-23T00:11:53.503Z,7.9
2022-12-23T00:12:55.483Z,7.8
2022-12-23T00:13:57.604Z,7.8
2022-12-23T00:14:59.483Z,7.8
2022-12-23T00:16:01.768Z,7.8
2022-12-23T00:17:09.242Z,7.8
2022-12-23T00:18:05.564Z,7.8
2022-12-23T00:19:22.461Z,7.8
2022-12-23T00:20:24.512Z,7.8
2022-12-23T00:21:26.488Z,7.8
2022-12-23T00:22:28.502Z,7.8
2022-12-23T00:23:30.483Z,7.8
2022-12-23T00:24:32.478Z,7.8
2022-12-23T00:25:34.471Z,7.9
2022-12-23T00:26:35.568Z,7.9
2022-12-23T00:27:37.969Z,7.9
2022-12-23T00:28:39.481Z,8
2022-12-23T00:29:40.542Z,7.9
2022-12-23T00:30:42.439Z,7.9
2022-12-23T00:31:44.781Z,7.9
2022-12-23T00:32:46.462Z,7.8
2022-12-23T00:33:48.521Z,7.8
2022-12-23T00:34:50.722Z,7.9
2022-12-23T00:35:52.592Z,7.8
2022-12-23T00:36:54.531Z,7.8
2022-12-23T00:37:56.424Z,7.9
2022-12-23T00:38:58.615Z,7.9
2022-12-23T00:40:06.065Z,7.9
2022-12-23T00:41:02.505Z,7.9
2022-12-23T00:42:04.678Z,7.9
2022-12-23T00:43:06.661Z,7.8
2022-12-23T00:44:08.803Z,7.9
2022-12-23T00:45:10.648Z,8
2022-12-23T00:46:12.532Z,8
2022-12-23T00:47:14.448Z,8.1
2022-12-23T00:48:15.503Z,8.1
2022-12-23T00:49:16.540Z,8.1
2022-12-23T00:50:18.564Z,8
2022-12-23T00:51:20.525Z,8.1
2022-12-23T00:52:22.714Z,8.1
2022-12-23T00:53:24.512Z,8.1
2022-12-23T00:54:26.643Z,8.1
2022-12-23T00:55:28.542Z,8.1
2022-12-23T00:56:30.495Z,8.1
2022-12-23T00:57:32.430Z,8.1
2022-12-23T00:58:34.486Z,8
2022-12-23T00:59:37.104Z,8
2022-12-23T01:00:38.503Z,8
2022-12-23T01:01:40.656Z,8
2022-12-23T01:02:42.622Z,8
2022-12-23T01:03:44.503Z,8
2022-12-23T01:04:46.533Z,8
2022-12-23T01:05:48.502Z,8
2022-12-23T01:06:49.502Z,8
2022-12-23T01:07:51.488Z,8.1
2022-12-23T01:08:52.548Z,8.1
2022-12-23T01:09:54.523Z,8
2022-12-23T01:10:56.484Z,7.9
2022-12-23T01:11:58.510Z,8
2022-12-23T01:12:59.497Z,8
2022-12-23T01:14:01.564Z,8.1
2022-12-23T01:15:03.540Z,8.1
2022-12-23T01:16:06.181Z,8.2
2022-12-23T01:17:07.546Z,8.3
2022-12-23T01:18:09.503Z,8.3
2022-12-23T01:19:11.662Z,8.3
2022-12-23T01:20:13.506Z,8.3
2022-12-23T01:21:15.593Z,8.3
2022-12-23T01:22:17.521Z,8.3
2022-12-23T01:23:19.482Z,8.3
2022-12-23T01:24:21.526Z,8.2
2022-12-23T01:25:23.481Z,8.2
2022-12-23T01:26:24.536Z,8.1
2022-12-23T01:27:26.556Z,8
2022-12-23T01:28:28.524Z,7.9
2022-12-23T01:29:29.522Z,7.9
2022-12-23T01:30:31.521Z,7.8
2022-12-23T01:31:33.525Z,7.8
2022-12-23T01:32:35.540Z,7.8
2022-12-23T01:33:37.442Z,7.7
2022-12-23T01:34:39.531Z,7.8
2022-12-23T01:35:41.490Z,7.8
2022-12-23T01:36:42.550Z,7.8
2022-12-23T01:37:44.562Z,7.8
2022-12-23T01:38:46.483Z,7.8
2022-12-23T01:39:47.511Z,7.9
2022-12-23T01:40:48.529Z,7.9
2022-12-23T01:41:50.507Z,7.9
2022-12-23T01:42:52.522Z,7.8
2022-12-23T01:43:53.579Z,7.8
2022-12-23T01:44:55.598Z,7.8
2022-12-23T01:45:57.533Z,7.8
2022-12-23T01:46:59.501Z,7.8
2022-12-23T01:48:01.587Z,7.8
2022-12-23T01:49:03.552Z,7.8
2022-12-23T01:50:05.547Z,7.8
2022-12-23T01:51:07.500Z,7.9
2022-12-23T01:52:08.489Z,7.9
2022-12-23T01:53:09.525Z,7.9
2022-12-23T01:54:11.569Z,7.8
2022-12-23T01:55:13.491Z,7.8
2022-12-23T01:56:15.499Z,7.8
2022-12-23T01:57:17.572Z,7.7
2022-12-23T01:58:19.561Z,7.6
2022-12-23T01:59:21.516Z,7.6
2022-12-23T02:00:22.505Z,7.6
2022-12-23T02:01:24.598Z,7.5
2022-12-23T02:02:26.689Z,7.6
2022-12-23T02:06:51.540Z,7.5
2022-12-23T02:07:52.569Z,7.5
2022-12-23T02:08:54.565Z,7.5
2022-12-23T02:09:56.549Z,7.4
2022-12-23T02:10:57.641Z,7.4
2022-12-23T02:11:59.505Z,7.4
2022-12-23T02:13:01.524Z,7.4
2022-12-23T02:14:02.531Z,7.4
2022-12-23T02:15:04.759Z,7.4
2022-12-23T02:16:06.543Z,7.4
2022-12-23T02:17:08.554Z,7.3
2022-12-23T02:18:10.737Z,7.3
2022-12-23T02:19:12.541Z,7.3
2022-12-23T02:20:14.567Z,7.2
2022-12-23T02:21:16.515Z,7.1
2022-12-23T02:22:18.044Z,7.1
2022-12-23T02:23:19.642Z,6.9
2022-12-23T02:24:21.727Z,6.9
2022-12-23T02:25:23.552Z,6.9
2022-12-23T02:26:25.602Z,7
2022-12-23T02:27:27.564Z,7
2022-12-23T02:28:28.523Z,7
2022-12-23T02:29:29.456Z,7.1
2022-12-23T02:30:30.639Z,7
2022-12-23T02:31:32.580Z,7
2022-12-23T02:32:34.479Z,7
2022-12-23T02:33:35.795Z,7
2022-12-23T02:34:37.720Z,6.9
2022-12-23T02:35:39.551Z,6.9
2022-12-23T02:36:41.560Z,7
2022-12-23T02:37:43.548Z,6.9
2022-12-23T02:38:44.563Z,7
2022-12-23T02:39:46.528Z,6.9
2022-12-23T02:40:48.566Z,6.9
2022-12-23T02:41:50.581Z,6.9
2022-12-23T02:42:52.542Z,6.8
2022-12-23T02:43:54.504Z,6.7
2022-12-23T02:44:56.523Z,6.7
2022-12-23T02:45:58.732Z,6.7
2022-12-23T02:47:00.552Z,6.7
2022-12-23T02:48:01.601Z,6.7
2022-12-23T02:49:03.561Z,6.7
2022-12-23T02:50:05.580Z,6.8
2022-12-23T02:51:07.622Z,6.8
2022-12-23T02:52:09.580Z,6.8
2022-12-23T02:53:11.559Z,6.8
2022-12-23T02:54:13.541Z,6.7
2022-12-23T02:55:15.610Z,6.6
2022-12-23T02:56:17.727Z,6.7
2022-12-23T02:57:19.478Z,6.7
2022-12-23T02:58:20.585Z,6.6
2022-12-23T02:59:22.577Z,6.6
2022-12-23T03:00:24.570Z,6.6
2022-12-23T03:01:26.701Z,6.6
2022-12-23T03:02:28.670Z,6.6
2022-12-23T03:03:30.615Z,6.7
2022-12-23T03:04:32.562Z,6.7
2022-12-23T03:05:34.599Z,6.6
2022-12-23T03:06:36.623Z,6.6
2022-12-23T03:07:38.606Z,6.6
2022-12-23T03:08:40.610Z,6.6
2022-12-23T03:09:42.520Z,6.6
2022-12-23T03:10:43.522Z,6.6
2022-12-23T03:11:45.547Z,6.6
2022-12-23T03:12:46.620Z,6.6
2022-12-23T03:13:48.587Z,6.6
2022-12-23T03:14:50.564Z,6.6
2022-12-23T03:15:52.600Z,6.5
2022-12-23T03:16:54.591Z,6.5
2022-12-23T03:17:56.580Z,6.5
2022-12-23T03:18:58.523Z,6.5
2022-12-23T03:19:59.554Z,6.5
2022-12-23T03:21:01.588Z,6.4
2022-12-23T03:22:03.556Z,6.4
2022-12-23T03:23:05.784Z,6.4
2022-12-23T03:24:07.644Z,6.4
2022-12-23T03:25:09.723Z,6.4
2022-12-23T03:26:11.605Z,6.4
2022-12-23T03:27:13.541Z,6.5
2022-12-23T03:28:14.540Z,6.5
2022-12-23T03:29:15.697Z,6.5
2022-12-23T03:30:17.824Z,6.5
2022-12-23T03:31:19.562Z,6.5
2022-12-23T03:32:22.017Z,6.6
2022-12-23T03:33:23.538Z,6.6
2022-12-23T03:34:25.860Z,6.7
2022-12-23T03:35:27.591Z,6.6
2022-12-23T03:36:29.607Z,6.6
2022-12-23T03:37:31.593Z,6.6
2022-12-23T03:38:33.561Z,6.6
2022-12-23T03:39:35.589Z,6.6
2022-12-23T03:40:37.559Z,6.6
2022-12-23T03:41:39.641Z,6.6
2022-12-23T03:42:41.580Z,6.5
2022-12-23T03:43:50.314Z,6.4
2022-12-23T03:45:03.939Z,6.4
2022-12-23T03:45:47.560Z,6.4
2022-12-23T03:46:49.681Z,6.4
2022-12-23T03:47:51.627Z,6.4
2022-12-23T03:48:53.545Z,6.5
2022-12-23T03:49:55.603Z,6.5
2022-12-23T03:50:57.683Z,6.5
2022-12-23T03:51:59.624Z,6.5
2022-12-23T03:53:01.622Z,6.6
2022-12-23T03:54:03.519Z,6.7
2022-12-23T03:55:04.566Z,6.8
2022-12-23T03:56:06.586Z,6.8
2022-12-23T03:57:08.624Z,6.9
2022-12-23T03:58:10.599Z,6.9
2022-12-23T03:59:12.642Z,6.9
2022-12-23T04:00:14.580Z,6.9
2022-12-23T04:01:17.907Z,6.9
2022-12-23T04:02:17.749Z,6.9
2022-12-23T04:03:19.603Z,7
2022-12-23T04:04:21.636Z,7
2022-12-23T04:05:23.539Z,7
2022-12-23T04:06:24.551Z,7
2022-12-23T04:07:25.604Z,7
2022-12-23T04:08:27.638Z,6.9
2022-12-23T04:09:29.581Z,7
2022-12-23T04:10:31.560Z,6.9
2022-12-23T04:11:33.601Z,6.9
2022-12-23T04:12:35.600Z,6.9
2022-12-23T04:13:37.600Z,6.9
2022-12-23T04:14:39.681Z,6.8
2022-12-23T04:15:41.676Z,6.8
2022-12-23T04:16:43.621Z,6.8
2022-12-23T04:17:45.602Z,6.7
2022-12-23T04:18:47.575Z,6.8
2022-12-23T04:19:48.581Z,6.8
2022-12-23T04:20:50.615Z,6.8
2022-12-23T04:21:52.605Z,6.9
2022-12-23T04:22:54.620Z,6.9
2022-12-23T04:23:55.601Z,7
2022-12-23T04:24:57.593Z,6.9
2022-12-23T04:25:59.668Z,7
2022-12-23T04:27:01.660Z,6.9
2022-12-23T04:28:03.654Z,6.9
2022-12-23T04:29:05.562Z,6.9
2022-12-23T04:30:07.941Z,6.9
2022-12-23T04:31:09.719Z,7
2022-12-23T04:32:11.596Z,7
2022-12-23T04:33:13.610Z,7
2022-12-23T04:34:15.632Z,7.1
2022-12-23T04:35:17.659Z,7.1
2022-12-23T04:36:19.628Z,7.1
2022-12-23T04:37:21.664Z,7.2
2022-12-23T04:38:23.579Z,7.2
2022-12-23T04:39:25.620Z,7.3
2022-12-23T04:40:27.604Z,7.3
2022-12-23T04:41:28.637Z,7.3
2022-12-23T04:42:30.606Z,7.2
2022-12-23T04:43:32.587Z,7.1
2022-12-23T04:44:33.620Z,7.2
2022-12-23T04:45:35.580Z,7.2
2022-12-23T04:46:36.672Z,7.1
2022-12-23T04:47:38.660Z,7
2022-12-23T04:48:40.624Z,7
2022-12-23T04:49:42.722Z,7
2022-12-23T04:50:44.602Z,7
2022-12-23T04:51:45.642Z,7.1
2022-12-23T04:52:47.621Z,7
2022-12-23T04:53:49.622Z,7
2022-12-23T04:54:51.601Z,6.9
2022-12-23T04:55:53.620Z,7
2022-12-23T04:56:55.621Z,7
2022-12-23T04:57:57.795Z,6.9
2022-12-23T04:58:59.622Z,6.9
2022-12-23T05:00:01.713Z,6.8
2022-12-23T05:01:03.711Z,6.8
2022-12-23T05:02:05.719Z,6.8
2022-12-23T05:03:06.765Z,6.9
2022-12-23T05:04:08.621Z,6.7
2022-12-23T05:05:10.606Z,6.8
2022-12-23T05:06:12.570Z,6.8
2022-12-23T05:07:13.604Z,6.9
2022-12-23T05:08:15.620Z,6.9
2022-12-23T05:09:17.573Z,6.9
2022-12-23T05:10:19.619Z,6.9
2022-12-23T05:11:21.623Z,6.9
2022-12-23T05:12:23.557Z,6.9
2022-12-23T05:13:24.547Z,6.9
2022-12-23T05:14:25.678Z,7
2022-12-23T05:15:27.688Z,7
2022-12-23T05:16:29.734Z,7.1
2022-12-23T05:17:30.552Z,7.1
2022-12-23T05:18:31.656Z,7.1
2022-12-23T05:19:33.622Z,7.1
2022-12-23T05:20:35.630Z,7.1
2022-12-23T05:21:37.734Z,7.1
2022-12-23T05:22:39.661Z,7.1
2022-12-23T05:23:41.627Z,7.1
2022-12-23T05:24:43.572Z,7.1
2022-12-23T05:25:44.600Z,7
2022-12-23T05:26:48.021Z,6.9
2022-12-23T05:27:48.584Z,6.9
2022-12-23T05:28:50.630Z,7
2022-12-23T05:29:52.603Z,7
2022-12-23T05:30:54.628Z,7.1
2022-12-23T05:31:56.738Z,7.2
2022-12-23T05:32:58.711Z,7.2
2022-12-23T05:34:05.858Z,7.3
2022-12-23T05:35:02.731Z,7.3
2022-12-23T05:36:04.630Z,7.2
2022-12-23T05:37:05.582Z,7.3
2022-12-23T05:38:12.660Z,7.3
2022-12-23T05:39:14.629Z,7.1
2022-12-23T05:40:19.988Z,7.1
2022-12-23T05:41:17.681Z,7.1
2022-12-23T05:42:19.558Z,7.1
2022-12-23T05:43:21.691Z,7.1
2022-12-23T05:44:23.563Z,7.1
2022-12-23T05:45:25.722Z,7
2022-12-23T05:46:27.355Z,7
2022-12-23T05:47:28.573Z,7
2022-12-23T05:48:30.590Z,7
2022-12-23T05:49:31.624Z,7
2022-12-23T05:50:33.580Z,7
2022-12-23T05:51:35.628Z,7
2022-12-23T05:52:36.602Z,6.8
2022-12-23T05:53:37.744Z,6.9
2022-12-23T05:54:39.572Z,6.8
2022-12-23T05:55:40.583Z,6.8
2022-12-23T05:56:41.646Z,6.9
2022-12-23T05:57:43.648Z,6.9
2022-12-23T05:58:44.622Z,7
2022-12-23T05:59:46.629Z,7.1
2022-12-23T06:00:48.710Z,7.1
2022-12-23T06:01:50.710Z,7.1
2022-12-23T06:02:54.043Z,7.1
2022-12-23T06:03:54.895Z,7.2
2022-12-23T06:04:55.621Z,7.2
2022-12-23T06:05:57.710Z,7.2
2022-12-23T06:06:59.629Z,7.1
2022-12-23T06:08:01.659Z,6.9
2022-12-23T06:09:03.701Z,7
2022-12-23T06:10:05.732Z,7
2022-12-23T06:11:07.662Z,7.1
2022-12-23T06:12:09.622Z,7.1
2022-12-23T06:13:10.589Z,7.2
2022-12-23T06:14:12.640Z,7.3
2022-12-23T06:15:14.615Z,7.4
2022-12-23T06:16:16.652Z,7.4
2022-12-23T06:17:18.633Z,7.4
2022-12-23T06:18:20.658Z,7.4
2022-12-23T06:19:22.642Z,7.3
2022-12-23T06:20:24.663Z,7.3
2022-12-23T06:21:26.716Z,7.2
2022-12-23T06:22:28.745Z,7.3
2022-12-23T06:23:30.640Z,7.3
2022-12-23T06:24:32.642Z,7.3
2022-12-23T06:25:34.647Z,7.3
2022-12-23T06:26:36.631Z,7.3
2022-12-23T06:27:38.643Z,7.3
2022-12-23T06:28:40.623Z,7.3
2022-12-23T06:29:42.661Z,7.3
2022-12-23T06:30:44.645Z,7.4
2022-12-23T06:31:45.684Z,7.6
2022-12-23T06:32:47.895Z,7.6
2022-12-23T06:33:50.742Z,7.6
2022-12-23T06:34:53.431Z,7.6
2022-12-23T06:35:54.838Z,7.5
2022-12-23T06:36:56.605Z,7.4
2022-12-23T06:37:58.985Z,7.4
2022-12-23T06:39:00.721Z,7.5
2022-12-23T06:40:02.819Z,7.5
2022-12-23T06:41:04.685Z,7.5
2022-12-23T06:42:06.602Z,7.6
2022-12-23T06:43:08.641Z,7.6
2022-12-23T06:44:09.643Z,7.5
2022-12-23T06:45:10.626Z,7.5
2022-12-23T06:46:12.697Z,7.5
2022-12-23T06:47:14.648Z,7.6
2022-12-23T06:48:15.660Z,7.6
2022-12-23T06:49:17.742Z,7.6
2022-12-23T06:50:19.682Z,7.7
2022-12-23T06:51:20.692Z,7.7
2022-12-23T06:52:22.661Z,7.7
2022-12-23T06:53:24.810Z,7.8
2022-12-23T06:54:26.608Z,7.8
2022-12-23T06:55:27.640Z,7.9
2022-12-23T06:56:29.663Z,7.9
2022-12-23T06:57:31.657Z,7.9
2022-12-23T06:58:32.705Z,7.9
2022-12-23T06:59:34.680Z,8
2022-12-23T07:00:36.715Z,7.9
2022-12-23T07:01:38.894Z,7.8
2022-12-23T07:02:40.715Z,7.8
2022-12-23T07:03:42.774Z,7.8
2022-12-23T07:04:44.582Z,7.9
2022-12-23T07:05:46.659Z,7.9
2022-12-23T07:06:48.626Z,7.9
2022-12-23T07:07:50.719Z,8
2022-12-23T07:08:52.667Z,7.9
2022-12-23T07:09:54.667Z,7.8
2022-12-23T07:10:56.680Z,7.6
2022-12-23T07:11:58.688Z,7.5
2022-12-23T07:13:00.680Z,7.6
2022-12-23T07:14:02.622Z,7.6
2022-12-23T07:15:03.758Z,7.6
2022-12-23T07:16:05.703Z,7.5
2022-12-23T07:17:07.732Z,7.6
2022-12-23T07:18:09.660Z,7.6
2022-12-23T07:19:10.640Z,7.7
2022-12-23T07:20:11.761Z,7.7
2022-12-23T07:21:21.499Z,7.8
2022-12-23T07:22:15.659Z,7.8
2022-12-23T07:23:16.676Z,7.8
2022-12-23T07:24:18.712Z,7.9
2022-12-23T07:25:20.735Z,7.8
2022-12-23T07:26:22.682Z,7.8
2022-12-23T07:27:24.740Z,7.8
2022-12-23T07:28:26.741Z,7.8
2022-12-23T07:29:28.799Z,7.9
2022-12-23T07:30:31.505Z,7.9
2022-12-23T07:31:33.204Z,7.9
2022-12-23T07:32:34.742Z,8
2022-12-23T07:33:36.802Z,8
2022-12-23T07:34:39.078Z,8
2022-12-23T07:35:40.692Z,8
2022-12-23T07:36:42.720Z,8
2022-12-23T07:37:44.699Z,8.1
2022-12-23T07:38:46.679Z,8.2
2022-12-23T07:39:48.734Z,8.1
2022-12-23T07:40:50.700Z,8.1
2022-12-23T07:42:03.780Z,8.1
2022-12-23T07:42:54.640Z,8
2022-12-23T07:43:55.704Z,8.1
2022-12-23T07:44:57.741Z,8
2022-12-23T07:46:00.917Z,8
2022-12-23T07:47:01.827Z,8.1
2022-12-23T07:48:03.743Z,8.1
2022-12-23T07:49:05.728Z,8.2
2022-12-23T07:50:07.838Z,8.2
2022-12-23T07:51:09.687Z,8.3
2022-12-23T07:52:11.673Z,8.2
2022-12-23T07:53:13.766Z,8.2
2022-12-23T07:54:15.720Z,8.2
2022-12-23T07:55:17.914Z,8.2
2022-12-23T07:56:19.842Z,8.1
2022-12-23T07:57:21.740Z,8.1
2022-12-23T07:58:23.747Z,8.1
2022-12-23T07:59:25.718Z,8.1
2022-12-23T08:00:27.780Z,8.1
2022-12-23T08:01:29.784Z,8.1
2022-12-23T08:02:30.863Z,8.2
2022-12-23T08:03:32.759Z,8.2
2022-12-23T08:04:33.753Z,8.2
2022-12-23T08:05:35.758Z,8.1
2022-12-23T08:06:37.812Z,8.2
2022-12-23T08:07:39.683Z,8.1
2022-12-23T08:08:41.685Z,8.2
2022-12-23T08:09:43.736Z,8.2
2022-12-23T08:10:48.391Z,8.2
2022-12-23T08:11:47.767Z,8.2
2022-12-23T08:12:49.639Z,8.3
2022-12-23T08:13:50.721Z,8.3
2022-12-23T08:14:51.738Z,8.4
2022-12-23T08:15:53.719Z,8.4
2022-12-23T08:16:55.725Z,8.4
2022-12-23T08:17:57.711Z,8.5
2022-12-23T08:18:59.667Z,8.5
2022-12-23T08:20:01.789Z,8.6
2022-12-23T08:21:03.762Z,8.5
2022-12-23T08:22:05.700Z,8.6
2022-12-23T08:23:06.738Z,8.6
2022-12-23T08:24:08.668Z,8.6
2022-12-23T08:25:09.673Z,8.7
2022-12-23T08:26:10.861Z,8.8
2022-12-23T08:27:13.337Z,8.8
2022-12-23T08:28:14.839Z,8.8
2022-12-23T08:29:16.738Z,8.8
2022-12-23T08:30:18.739Z,8.7
2022-12-23T08:31:20.737Z,8.7
2022-12-23T08:32:21.859Z,8.8
2022-12-23T08:33:23.760Z,8.8
2022-12-23T08:34:25.758Z,8.7
2022-12-23T08:35:27.702Z,8.7
2022-12-23T08:36:29.806Z,8.7
2022-12-23T08:37:31.719Z,8.8
2022-12-23T08:38:33.101Z,8.8
2022-12-23T08:39:37.798Z,8.8
2022-12-23T08:40:39.687Z,8.7
2022-12-23T08:41:41.007Z,8.6
2022-12-23T08:42:42.741Z,8.6
2022-12-23T08:43:44.882Z,8.6
2022-12-23T08:44:46.819Z,8.6
2022-12-23T08:45:48.807Z,8.7
2022-12-23T08:46:50.928Z,8.7
2022-12-23T08:47:53.019Z,8.6
2022-12-23T08:48:54.780Z,8.6
2022-12-23T08:49:56.661Z,8.7
2022-12-23T08:50:57.888Z,8.7
2022-12-23T08:51:59.823Z,8.6
2022-12-23T08:53:01.911Z,8.6
2022-12-23T08:54:03.749Z,8.6
2022-12-23T08:55:05.982Z,8.6
2022-12-23T08:56:08.144Z,8.5
2022-12-23T08:57:09.864Z,8.6
2022-12-23T08:58:11.703Z,8.6
2022-12-23T08:59:18.564Z,8.5
2022-12-23T09:00:15.777Z,8.6
2022-12-23T09:01:17.883Z,8.6
2022-12-23T09:02:19.868Z,8.6
2022-12-23T09:03:20.803Z,8.6
2022-12-23T09:04:22.738Z,8.7
2022-12-23T09:05:24.742Z,8.7
2022-12-23T09:06:29.354Z,8.8
2022-12-23T09:07:27.701Z,8.8
2022-12-23T09:08:29.754Z,8.7
2022-12-23T09:09:31.759Z,8.8
2022-12-23T09:10:33.800Z,8.8
2022-12-23T09:11:35.943Z,8.8
2022-12-23T09:12:37.829Z,8.8
2022-12-23T09:13:39.862Z,8.9
2022-12-23T09:14:41.741Z,8.8
2022-12-23T09:15:44.306Z,8.8
2022-12-23T09:16:45.785Z,8.8
2022-12-23T09:17:47.742Z,8.8
2022-12-23T09:18:49.094Z,8.8
2022-12-23T09:19:53.090Z,8.9
2022-12-23T09:20:52.779Z,8.9
2022-12-23T09:21:54.761Z,8.9
2022-12-23T09:22:56.735Z,8.9
2022-12-23T09:23:58.759Z,8.9
2022-12-23T09:25:04.712Z,8.9
2022-12-23T09:26:01.802Z,8.8
2022-12-23T09:27:03.765Z,8.8
2022-12-23T09:28:05.747Z,8.9
2022-12-23T09:29:07.763Z,8.9
2022-12-23T09:30:09.827Z,8.9
2022-12-23T09:31:11.815Z,8.8
2022-12-23T09:32:13.731Z,8.9
2022-12-23T09:33:15.739Z,8.9
2022-12-23T09:34:17.748Z,9
2022-12-23T09:35:19.742Z,9
2022-12-23T09:36:20.752Z,9
2022-12-23T09:37:22.781Z,9
2022-12-23T09:38:24.742Z,9
2022-12-23T09:39:26.762Z,8.9
2022-12-23T09:40:28.730Z,8.8
2022-12-23T09:41:30.707Z,8.9
2022-12-23T09:42:32.761Z,8.8
2022-12-23T09:43:34.838Z,8.8
2022-12-23T09:44:36.792Z,8.7
2022-12-23T09:45:40.767Z,8.7
2022-12-23T09:46:41.057Z,8.7
2022-12-23T09:47:43.136Z,8.7
2022-12-23T09:48:45.129Z,8.7
2022-12-23T09:49:46.830Z,8.7
2022-12-23T09:50:48.742Z,8.7
2022-12-23T09:51:51.221Z,8.7
2022-12-23T09:52:53.421Z,8.6
2022-12-23T09:53:54.927Z,8.6
2022-12-23T09:54:57.023Z,8.7
2022-12-23T09:55:58.842Z,8.8
2022-12-23T09:57:00.759Z,8.8
2022-12-23T09:58:02.788Z,8.8
2022-12-23T09:59:03.812Z,8.8
2022-12-23T10:00:04.778Z,8.9
2022-12-23T10:01:06.730Z,8.9
2022-12-23T10:02:08.922Z,8.9
2022-12-23T10:03:09.933Z,8.9
2022-12-23T10:04:10.806Z,8.9
2022-12-23T10:05:12.910Z,8.9
2022-12-23T10:06:14.770Z,8.9
2022-12-23T10:07:15.726Z,9
2022-12-23T10:08:16.800Z,9.1
2022-12-23T10:09:18.820Z,9
2022-12-23T10:10:20.738Z,9
2022-12-23T10:11:23.161Z,9.1
2022-12-23T10:12:28.163Z,9.1
2022-12-23T10:13:27.340Z,9.1
2022-12-23T10:14:28.788Z,9.1
2022-12-23T10:15:30.831Z,9.2
2022-12-23T10:16:33.197Z,9.2
2022-12-23T10:17:34.761Z,9.2
2022-12-23T10:18:35.750Z,9.2
2022-12-23T10:19:38.122Z,9.2
2022-12-23T10:20:40.784Z,9.3
2022-12-23T10:21:47.061Z,9.2
2022-12-23T10:22:44.785Z,9.3
2022-12-23T10:23:46.201Z,9.3
2022-12-23T10:24:47.787Z,9.3
2022-12-23T10:25:49.812Z,9.3
2022-12-23T10:26:51.816Z,9.3
2022-12-23T10:27:53.923Z,9.4
2022-12-23T10:28:55.880Z,9.4
2022-12-23T10:29:57.938Z,9.4
2022-12-23T10:31:23.692Z,9.4
2022-12-23T10:32:02.302Z,9.3
2022-12-23T10:33:03.777Z,9.2
2022-12-23T10:34:05.800Z,9.3
2022-12-23T10:35:07.826Z,9.2
2022-12-23T10:36:09.846Z,9.3
2022-12-23T10:37:13.044Z,9.4
2022-12-23T10:38:14.906Z,9.4
2022-12-23T10:39:16.822Z,9.4
2022-12-23T10:40:18.790Z,9.3
2022-12-23T10:41:19.914Z,9.4
2022-12-23T10:42:22.029Z,9.3
2022-12-23T10:43:24.268Z,9.2
2022-12-23T10:44:26.271Z,9.3
2022-12-23T10:45:27.821Z,9.2
2022-12-23T10:46:29.820Z,9.2
2022-12-23T10:47:31.782Z,9.3
2022-12-23T10:48:33.026Z,9.3
2022-12-23T10:49:33.824Z,9.3
2022-12-23T10:50:35.835Z,9.3
2022-12-23T10:51:37.950Z,9.3
2022-12-23T10:52:39.803Z,9.3
2022-12-23T10:53:42.541Z,9.3
2022-12-23T10:54:44.684Z,9.3
2022-12-23T10:55:46.228Z,9.2
2022-12-23T10:56:48.088Z,9.1
2022-12-23T10:57:49.982Z,9.1
2022-12-23T10:58:52.044Z,9.1
2022-12-23T10:59:53.808Z,9
2022-12-23T11:00:55.903Z,9
2022-12-23T11:01:58.061Z,8.9
2022-12-23T11:02:59.907Z,9
2022-12-23T11:04:01.822Z,9.1
2022-12-23T11:05:03.868Z,9.1
2022-12-23T11:06:05.890Z,9.1
2022-12-23T11:07:41.900Z,9.1
2022-12-23T11:08:08.784Z,9.2
2022-12-23T11:09:10.991Z,9.2
2022-12-23T11:10:12.877Z,9.2
2022-12-23T11:11:15.431Z,9.2
2022-12-23T11:12:16.882Z,9.2
2022-12-23T11:13:18.791Z,9.2
2022-12-23T11:14:20.948Z,9.2
2022-12-23T11:15:22.782Z,9.3
2022-12-23T11:16:25.091Z,9.3
2022-12-23T11:17:27.801Z,9.3
2022-12-23T11:18:29.862Z,9.4
2022-12-23T11:19:31.958Z,9.4
2022-12-23T11:20:33.850Z,9.4
2022-12-23T11:21:35.831Z,9.4
2022-12-23T11:22:37.843Z,9.4
2022-12-23T11:23:39.900Z,9.3
2022-12-23T11:24:43.360Z,9.3
2022-12-23T11:25:43.782Z,9.3
2022-12-23T11:26:46.164Z,9.3
2022-12-23T11:27:47.743Z,9.2
2022-12-23T11:28:49.843Z,9.1
2022-12-23T11:29:51.843Z,9.2
2022-12-23T11:30:56.431Z,9.2
2022-12-23T11:31:56.012Z,9.1
2022-12-23T11:32:57.903Z,9.1
2022-12-23T11:33:59.849Z,9.2
2022-12-23T11:35:01.988Z,9.2
2022-12-23T11:36:03.784Z,9.2
2022-12-23T11:37:07.367Z,9.2
2022-12-23T11:38:06.847Z,9.1
2022-12-23T11:39:08.989Z,9.1
2022-12-23T11:40:10.863Z,9.1
2022-12-23T11:41:12.810Z,9.1
2022-12-23T11:42:14.842Z,9.1
2022-12-23T11:43:16.863Z,9.1
2022-12-23T11:44:18.906Z,9.1
2022-12-23T11:45:21.101Z,9.1
2022-12-23T11:46:23.231Z,9.1
2022-12-23T11:47:26.143Z,9
2022-12-23T11:48:28.624Z,9.1
2022-12-23T11:49:30.903Z,9.1
2022-12-23T11:50:33.182Z,9.2
2022-12-23T11:51:35.108Z,9.3
2022-12-23T11:52:36.813Z,9.4
2022-12-23T11:53:38.982Z,9.4
2022-12-23T11:54:40.829Z,9.5
2022-12-23T11:55:42.902Z,9.5
2022-12-23T11:56:45.154Z,9.6
2022-12-23T11:57:46.821Z,9.6
2022-12-23T11:58:47.784Z,9.7
2022-12-23T11:59:49.348Z,9.8
2022-12-23T12:00:55.460Z,9.8
2022-12-23T12:01:53.116Z,9.9
2022-12-23T12:02:55.020Z,9.9
2022-12-23T12:03:55.902Z,10
2022-12-23T12:04:58.045Z,10
2022-12-23T12:05:59.882Z,9.9
2022-12-23T12:07:02.040Z,9.8
2022-12-23T12:08:04.273Z,9.8
2022-12-23T12:09:06.122Z,9.6
2022-12-23T12:10:07.822Z,9.5
2022-12-23T12:11:10.847Z,9.4
2022-12-23T12:12:13.195Z,9.3
2022-12-23T12:13:14.802Z,9.2
2022-12-23T12:14:15.801Z,9.1
2022-12-23T12:15:17.422Z,9
2022-12-23T12:16:18.937Z,9
2022-12-23T12:17:21.063Z,9
2022-12-23T12:18:23.155Z,9.1
2022-12-23T12:19:24.869Z,9.1
2022-12-23T12:20:26.943Z,9
2022-12-23T12:21:29.023Z,9.1
2022-12-23T12:22:30.867Z,9
2022-12-23T12:23:32.841Z,9.1
2022-12-23T12:24:33.946Z,9.1
2022-12-23T12:25:39.487Z,9.2
2022-12-23T12:26:37.815Z,9.2
2022-12-23T12:27:39.898Z,9.3
2022-12-23T12:28:41.839Z,9.3
2022-12-23T12:29:43.831Z,9.4
2022-12-23T12:30:44.955Z,9.5
2022-12-23T12:31:46.864Z,9.6
2022-12-23T12:32:48.899Z,9.6
2022-12-23T12:33:51.100Z,9.7
2022-12-23T12:34:52.842Z,9.7
2022-12-23T12:35:54.645Z,9.8
2022-12-23T12:36:55.921Z,9.8
2022-12-23T12:37:58.222Z,9.8
2022-12-23T12:39:00.005Z,9.8
2022-12-23T12:40:02.400Z,9.8
2022-12-23T12:41:03.924Z,9.9
2022-12-23T12:42:06.161Z,9.9
2022-12-23T12:43:06.974Z,9.9
2022-12-23T12:44:08.823Z,9.8
2022-12-23T12:45:10.881Z,9.8
2022-12-23T12:46:13.136Z,9.8
2022-12-23T12:47:45.125Z,9.8
2022-12-23T12:48:18.831Z,9.9
2022-12-23T12:49:18.850Z,9.8
2022-12-23T12:50:21.920Z,9.8
2022-12-23T12:51:23.848Z,9.9
2022-12-23T12:52:25.802Z,9.9
2022-12-23T12:53:27.871Z,9.8
2022-12-23T12:54:29.930Z,9.7
2022-12-23T12:55:31.871Z,9.6
2022-12-23T12:56:33.867Z,9.6
2022-12-23T12:57:35.981Z,9.6
2022-12-23T12:58:37.942Z,9.6
2022-12-23T12:59:40.241Z,9.6
2022-12-23T13:00:42.141Z,9.4
2022-12-23T13:01:43.991Z,9.4
2022-12-23T13:02:45.976Z,9.3
2022-12-23T13:03:48.266Z,9.4
2022-12-23T13:04:50.029Z,9.5
2022-12-23T13:05:54.344Z,9.5
2022-12-23T13:06:54.382Z,9.6
2022-12-23T13:07:55.971Z,9.6
2022-12-23T13:08:58.403Z,9.5
2022-12-23T13:09:59.922Z,9.6
2022-12-23T13:11:02.330Z,9.6
2022-12-23T13:12:04.842Z,9.6
2022-12-23T13:13:06.139Z,9.6
2022-12-23T13:14:07.840Z,9.6
2022-12-23T13:15:09.983Z,9.7
2022-12-23T13:16:11.920Z,9.7
2022-12-23T13:17:13.993Z,9.7
2022-12-23T13:18:16.180Z,9.8
2022-12-23T13:19:18.140Z,9.9
2022-12-23T13:20:20.127Z,9.9
2022-12-23T13:21:22.298Z,9.9
2022-12-23T13:22:24.343Z,9.9
2022-12-23T13:24:28.067Z,9.9
2022-12-23T13:25:29.951Z,9.9
2022-12-23T13:26:31.865Z,10
2022-12-23T13:27:33.990Z,10.1
2022-12-23T13:28:35.906Z,10.1
2022-12-23T13:29:37.960Z,10.1
2022-12-23T13:30:39.957Z,10.1
2022-12-23T13:31:41.950Z,10.1
2022-12-23T13:32:43.931Z,10.1
2022-12-23T13:33:45.901Z,10.1
2022-12-23T13:34:47.851Z,10.1
2022-12-23T13:35:49.893Z,10.1
2022-12-23T13:36:51.996Z,10.1
2022-12-23T13:37:53.880Z,10.1
2022-12-23T13:38:55.843Z,10.1
2022-12-23T13:39:57.962Z,10.1
2022-12-23T13:40:59.943Z,10.2
2022-12-23T13:42:05.428Z,10.2
2022-12-23T13:43:03.927Z,10.2
2022-12-23T13:44:05.924Z,10.2
2022-12-23T13:45:07.874Z,10.2
2022-12-23T13:46:09.951Z,10.2
2022-12-23T13:47:11.900Z,10.2
2022-12-23T13:48:14.482Z,10.2
2022-12-23T13:49:15.892Z,10.1
2022-12-23T13:50:18.083Z,10.1
2022-12-23T13:51:19.927Z,10
2022-12-23T13:52:21.982Z,10
2022-12-23T13:53:24.102Z,10.1
2022-12-23T13:54:26.087Z,10.1
2022-12-23T13:55:28.172Z,10
2022-12-23T13:56:29.885Z,10
2022-12-23T13:57:31.828Z,10.1
2022-12-23T13:58:33.840Z,10.1
2022-12-23T13:59:35.900Z,10.2
2022-12-23T14:00:37.954Z,10.2
2022-12-23T14:01:40.121Z,10.2
2022-12-23T14:02:42.227Z,10.3
2022-12-23T14:03:43.871Z,10.3
2022-12-23T14:04:46.019Z,10.3
2022-12-23T14:05:47.960Z,10.3
2022-12-23T14:06:49.875Z,10.4
2022-12-23T14:07:51.899Z,10.5
2022-12-23T14:08:53.835Z,10.4
2022-12-23T14:09:55.906Z,10.3
2022-12-23T14:10:58.154Z,10.3
2022-12-23T14:12:04.275Z,10.4
2022-12-23T14:13:02.317Z,10.4
2022-12-23T14:14:03.978Z,10.4
2022-12-23T14:15:05.952Z,10.3
2022-12-23T14:16:07.909Z,10.3
2022-12-23T14:17:09.902Z,10.2
2022-12-23T14:18:12.061Z,10
2022-12-23T14:19:14.716Z,9.9
2022-12-23T14:20:16.925Z,9.9
2022-12-23T14:21:18.896Z,9.9